Time;durP1;ratioP1;P1;durP2;ratioP2;P2;SDS_P1;SDS_P2;PMS_P1;PMS_P2;Temp;Humidity;BMP_temperature;BMP_pressure;BME280_temperature;BME280_humidity;BME280_pressure;Samples;Min_cycle;Max_cycle;Signal;HPM_P1;HPM_P2
2022/04/01 00:04:15;;;;;;;65.90;25.17;;;1.10;99.90;;;;;;10411124;28;20512;-87
2022/04/01 00:09:15;;;;;;;59.83;24.17;;;1.20;99.90;;;;;;10416117;28;20029;-86
2022/04/01 00:14:16;;;;;;;59.60;23.80;;;1.20;99.90;;;;;;10397679;28;20075;-85
2022/04/01 00:19:19;;;;;;;56.60;22.03;;;1.10;99.90;;;;;;10414861;28;20045;-87
2022/04/01 00:24:20;;;;;;;63.67;24.63;;;1.10;99.90;;;;;;10414823;28;20033;-86
2022/04/01 00:29:21;;;;;;;51.60;21.23;;;1.10;99.90;;;;;;10415581;28;20034;-86
2022/04/01 00:34:21;;;;;;;62.37;23.47;;;1.10;99.90;;;;;;10397553;28;20041;-85
2022/04/01 00:39:23;;;;;;;53.47;22.40;;;1.10;99.90;;;;;;10412976;28;20029;-86
2022/04/01 00:44:33;;;;;;;64.13;24.60;;;1.10;99.90;;;;;;10415214;28;20728;-86
2022/04/01 00:49:35;;;;;;;49.73;20.93;;;1.10;99.90;;;;;;10445056;23;20408;-87
2022/04/01 00:54:37;;;;;;;48.47;20.07;;;1.10;99.90;;;;;;10497231;28;20051;-86
2022/04/01 00:59:38;;;;;;;50.13;21.13;;;1.00;99.90;;;;;;10478489;28;20025;-86
2022/04/01 01:04:38;;;;;;;56.40;21.50;;;1.00;99.90;;;;;;10492680;28;20536;-87
2022/04/01 01:09:40;;;;;;;57.37;20.90;;;1.10;99.90;;;;;;10460443;28;20035;-87
2022/04/01 01:14:41;;;;;;;59.47;22.80;;;1.00;99.90;;;;;;10477564;28;20032;-86
2022/04/01 01:19:46;;;;;;;55.20;23.17;;;1.00;99.90;;;;;;10495962;28;20036;-87
2022/04/01 01:24:46;;;;;;;53.20;21.67;;;1.00;99.90;;;;;;10470431;28;20060;-87
2022/04/01 01:29:47;;;;;;;50.40;19.13;;;1.00;99.90;;;;;;10454462;28;20120;-87
2022/04/01 01:34:48;;;;;;;48.17;19.60;;;1.00;99.90;;;;;;10492599;28;20040;-87
2022/04/01 01:39:49;;;;;;;47.60;20.63;;;1.00;99.90;;;;;;10476552;28;20393;-87
2022/04/01 01:44:49;;;;;;;52.13;20.90;;;1.00;99.90;;;;;;10473321;28;20028;-87
2022/04/01 01:55:09;;;;;;;47.57;18.97;;;1.00;99.90;;;;;;10505832;22;20061;-86
2022/04/01 02:00:11;;;;;;;45.07;19.87;;;1.00;99.90;;;;;;10494766;28;20452;-86
2022/04/01 02:05:11;;;;;;;55.03;21.33;;;1.00;99.90;;;;;;10494447;28;20029;-86
2022/04/01 02:10:12;;;;;;;47.87;19.93;;;1.00;99.90;;;;;;10489032;28;20029;-86
2022/04/01 02:15:13;;;;;;;64.47;22.17;;;1.00;99.90;;;;;;10452574;28;20048;-85
2022/04/01 02:20:14;;;;;;;46.93;18.13;;;1.00;99.90;;;;;;10492087;28;20040;-86
2022/04/01 02:25:14;;;;;;;53.00;19.73;;;1.00;99.90;;;;;;10478625;28;20086;-86
2022/04/01 02:30:15;;;;;;;60.40;22.30;;;1.00;99.90;;;;;;10484489;28;20032;-86
2022/04/01 02:35:16;;;;;;;57.97;21.67;;;1.00;99.90;;;;;;10483679;28;20058;-86
2022/04/01 02:40:16;;;;;;;48.93;19.50;;;1.00;99.90;;;;;;10528663;28;20031;-85
2022/04/01 02:45:17;;;;;;;56.40;22.37;;;1.00;99.90;;;;;;10515238;28;20076;-85
2022/04/01 02:50:18;;;;;;;52.60;20.37;;;1.00;99.90;;;;;;10534447;28;20103;-86
2022/04/01 02:55:19;;;;;;;50.20;20.53;;;0.90;99.90;;;;;;10500015;28;20060;-86
2022/04/01 03:00:21;;;;;;;48.43;20.53;;;1.00;99.90;;;;;;10492830;28;20025;-87
2022/04/01 03:05:22;;;;;;;131.00;33.27;;;0.90;99.90;;;;;;10517662;28;20035;-85
2022/04/01 03:10:23;;;;;;;101.67;28.30;;;0.90;99.90;;;;;;10524789;28;20139;-84
2022/04/01 03:15:25;;;;;;;52.13;20.47;;;1.00;99.90;;;;;;10475133;28;20044;-83
2022/04/01 03:20:29;;;;;;;57.87;21.53;;;1.00;99.90;;;;;;10512495;28;20044;-86
2022/04/01 03:25:32;;;;;;;46.57;21.37;;;0.90;99.90;;;;;;10500853;28;20020;-86
2022/04/01 03:30:33;;;;;;;54.27;21.03;;;0.90;99.90;;;;;;10496736;28;20897;-85
2022/04/01 03:35:34;;;;;;;49.73;20.70;;;0.90;99.90;;;;;;10514924;28;20063;-85
2022/04/01 03:40:39;;;;;;;48.57;19.90;;;0.90;99.90;;;;;;10513062;28;20155;-85
2022/04/01 03:45:46;;;;;;;42.35;19.17;;;0.90;99.90;;;;;;10509704;28;20067;-85
2022/04/01 03:50:56;;;;;;;52.03;20.77;;;0.90;99.90;;;;;;10506451;28;20483;-87
2022/04/01 03:55:58;;;;;;;52.20;20.90;;;0.90;99.90;;;;;;10530026;28;20052;-84
2022/04/01 04:01:02;;;;;;;44.13;18.73;;;0.90;99.90;;;;;;10526143;28;20025;-86
2022/04/01 04:06:09;;;;;;;45.77;18.00;;;0.90;99.90;;;;;;10492780;28;20559;-85
2022/04/01 04:11:11;;;;;;;42.97;18.70;;;0.90;99.90;;;;;;10518451;22;20544;-85
2022/04/01 04:16:21;;;;;;;45.20;18.83;;;0.90;99.90;;;;;;10443926;23;20492;-87
2022/04/01 04:21:29;;;;;;;45.60;19.33;;;0.80;99.90;;;;;;10390521;28;20099;-86
2022/04/01 04:26:38;;;;;;;44.30;19.40;;;0.80;99.90;;;;;;10380768;28;20075;-85
2022/04/01 04:31:52;;;;;;;335.70;67.03;;;0.80;99.90;;;;;;10400679;28;20038;-86
2022/04/01 04:36:56;;;;;;;60.93;21.57;;;0.90;99.90;;;;;;10366579;28;20038;-86
2022/04/01 04:41:58;;;;;;;48.03;19.63;;;0.80;99.90;;;;;;10365619;28;20033;-86
2022/04/01 04:47:00;;;;;;;43.60;18.70;;;0.80;99.90;;;;;;10366815;28;20025;-86
2022/04/01 04:52:02;;;;;;;50.20;20.10;;;0.80;99.90;;;;;;10382847;28;20048;-87
2022/04/01 04:57:04;;;;;;;43.17;18.80;;;0.80;99.90;;;;;;10372224;28;20037;-87
2022/04/01 05:02:09;;;;;;;48.40;19.37;;;0.80;99.90;;;;;;10372828;28;20026;-87
2022/04/01 05:07:43;;;;;;;43.73;19.27;;;0.80;99.90;;;;;;10374801;28;20037;-87
2022/04/01 05:12:51;;;;;;;47.03;18.37;;;0.80;99.90;;;;;;10371933;28;20065;-87
2022/04/01 05:18:03;;;;;;;53.30;20.83;;;0.80;99.90;;;;;;10373951;28;20100;-86
2022/04/01 05:23:24;;;;;;;52.53;21.20;;;0.80;99.90;;;;;;10373199;28;20040;-87
2022/04/01 05:28:30;;;;;;;48.60;21.47;;;0.80;99.90;;;;;;10371947;28;20036;-86
2022/04/01 05:33:47;;;;;;;48.43;19.30;;;0.80;99.90;;;;;;10372532;28;20044;-86
2022/04/01 05:38:48;;;;;;;48.93;19.50;;;0.80;99.90;;;;;;10373402;28;20058;-87
2022/04/01 05:43:50;;;;;;;53.30;21.47;;;0.90;99.90;;;;;;10370929;28;20022;-87
2022/04/01 05:48:54;;;;;;;50.27;19.07;;;0.90;99.90;;;;;;10372618;28;20028;-90
2022/04/01 05:53:56;;;;;;;41.97;18.10;;;0.80;99.90;;;;;;10372539;28;20378;-89
2022/04/01 05:58:56;;;;;;;38.47;15.60;;;0.80;99.90;;;;;;10372217;28;20137;-88
2022/04/01 06:04:19;;;;;;;46.57;16.83;;;0.80;99.90;;;;;;10369925;28;20113;-87
2022/04/01 06:09:36;;;;;;;43.83;17.50;;;0.80;99.90;;;;;;10370680;28;20489;-89
2022/04/01 06:14:42;;;;;;;;;;;0.80;99.90;;;;;;10372282;28;20042;-90
2022/04/01 06:19:47;;;;;;;32.72;13.90;;;0.80;99.90;;;;;;10372257;28;20013;-88
2022/04/01 06:25:10;;;;;;;35.17;15.57;;;0.80;99.90;;;;;;10370453;28;20022;-90
2022/04/01 06:30:19;;;;;;;45.70;17.30;;;0.80;99.90;;;;;;10369066;28;20088;-89
2022/04/01 06:35:29;;;;;;;39.17;16.77;;;0.80;99.90;;;;;;10369823;28;20526;-88
2022/04/01 06:40:43;;;;;;;42.27;18.70;;;0.90;99.90;;;;;;10370621;28;20057;-90
2022/04/01 06:45:44;;;;;;;45.40;18.03;;;1.00;99.90;;;;;;10369348;28;20048;-89
2022/04/01 06:50:49;;;;;;;40.13;16.13;;;1.10;99.90;;;;;;10369159;28;20026;-88
2022/04/01 06:55:50;;;;;;;29.65;12.38;;;1.10;99.90;;;;;;10370112;28;20207;-88
2022/04/01 07:00:50;;;;;;;33.70;14.07;;;1.20;99.90;;;;;;10370632;28;20101;-89
2022/04/01 07:05:51;;;;;;;38.93;15.60;;;1.20;99.90;;;;;;10385595;28;20036;-88
2022/04/01 07:10:53;;;;;;;35.57;15.47;;;1.30;99.90;;;;;;10405346;28;20022;-90
2022/04/01 07:15:54;;;;;;;39.67;14.17;;;1.30;99.90;;;;;;10399752;28;20412;-89
2022/04/01 07:20:54;;;;;;;28.13;14.23;;;1.30;99.90;;;;;;10395521;28;20072;-89
2022/04/01 07:25:55;;;;;;;33.57;14.77;;;1.40;99.90;;;;;;10386998;28;20040;-88
2022/04/01 07:30:55;;;;;;;31.13;14.97;;;1.40;99.90;;;;;;10411676;28;20033;-88
2022/04/01 07:35:56;;;;;;;33.17;15.03;;;1.40;99.90;;;;;;10410950;28;20128;-89
2022/04/01 07:40:57;;;;;;;32.30;15.30;;;1.40;99.90;;;;;;10408133;28;20025;-87
2022/04/01 07:45:58;;;;;;;31.00;14.20;;;1.40;99.90;;;;;;10409647;28;20151;-88
2022/04/01 07:50:58;;;;;;;28.37;12.37;;;1.50;99.90;;;;;;10407872;28;20021;-88
2022/04/01 07:55:59;;;;;;;30.23;13.40;;;1.50;99.90;;;;;;10401814;28;20124;-92
2022/04/01 08:00:59;;;;;;;28.77;12.17;;;1.70;99.90;;;;;;10395034;28;20025;-88
2022/04/01 08:06:00;;;;;;;25.03;11.97;;;1.90;99.90;;;;;;10399162;28;20033;-87
2022/04/01 08:11:01;;;;;;;27.90;11.63;;;1.90;99.90;;;;;;10390540;28;20477;-85
2022/04/01 08:16:54;;;;;;;34.50;14.73;;;1.80;99.90;;;;;;10403863;28;20029;-89
2022/04/01 08:21:57;;;;;;;28.00;12.00;;;1.80;99.90;;;;;;10366649;28;20147;-88
2022/04/01 08:27:00;;;;;;;25.33;12.40;;;2.10;99.90;;;;;;10396255;28;20040;-90
2022/04/01 08:32:00;;;;;;;26.37;12.10;;;2.10;99.90;;;;;;10398230;28;20032;-88
2022/04/01 08:37:21;;;;;;;21.37;10.73;;;2.40;99.90;;;;;;10398126;28;20695;-89
2022/04/01 08:42:22;;;;;;;23.67;10.50;;;2.60;99.90;;;;;;10398266;28;20477;-88
2022/04/01 08:47:22;;;;;;;24.47;11.53;;;2.60;99.90;;;;;;10415436;28;20034;-91
2022/04/01 08:52:23;;;;;;;24.77;12.57;;;2.80;99.90;;;;;;10415578;28;20029;-89
2022/04/01 09:07:38;;;;;;;26.00;12.57;;;2.70;99.90;;;;;;10734425;23;20066;-85
2022/04/01 09:18:44;;;;;;;23.38;10.98;;;3.00;99.90;;;;;;10372185;28;20393;-86
2022/04/01 09:23:47;;;;;;;24.87;11.70;;;2.90;99.90;;;;;;10373174;28;20025;-85
2022/04/01 09:28:53;;;;;;;20.73;10.07;;;2.70;99.90;;;;;;10372959;28;20026;-85
2022/04/01 09:33:54;;;;;;;21.70;10.65;;;2.40;99.90;;;;;;10394811;28;20038;-87
2022/04/01 09:39:10;;;;;;;22.53;11.37;;;2.20;99.90;;;;;;10394178;28;20338;-85
2022/04/01 09:45:06;;;;;;;34.47;16.77;;;2.10;99.90;;;;;;10412292;28;20081;-86
2022/04/01 09:50:16;;;;;;;71.27;34.93;;;2.40;99.90;;;;;;10393540;28;20033;-86
2022/04/01 09:55:17;;;;;;;38.13;18.63;;;2.50;99.90;;;;;;10392398;28;20041;-86
2022/04/01 10:00:17;;;;;;;71.83;36.83;;;2.50;99.90;;;;;;10412005;28;20026;-86
2022/04/01 10:05:18;;;;;;;22.73;12.10;;;2.40;99.90;;;;;;10393809;28;20107;-86
2022/04/01 10:10:20;;;;;;;22.83;12.03;;;2.40;99.90;;;;;;10412143;28;20030;-86
2022/04/01 10:15:21;;;;;;;39.43;20.97;;;2.50;99.90;;;;;;10393129;28;20042;-87
2022/04/01 10:20:29;;;;;;;217.60;96.83;;;2.30;99.90;;;;;;10368490;28;20048;-85
2022/04/01 10:25:37;;;;;;;116.97;54.13;;;2.30;99.90;;;;;;10409899;28;20029;-86
2022/04/01 10:30:40;;;;;;;34.03;16.37;;;2.40;99.90;;;;;;10408146;28;20030;-89
2022/04/01 10:35:41;;;;;;;52.70;23.73;;;2.50;99.90;;;;;;10390582;28;20045;-90
2022/04/01 10:40:50;;;;;;;70.23;34.13;;;2.30;99.90;;;;;;10408943;28;20021;-85
2022/04/01 10:46:17;;;;;;;64.33;32.40;;;2.40;99.90;;;;;;10393006;28;20068;-86
2022/04/01 10:51:37;;;;;;;66.93;37.43;;;2.20;99.90;;;;;;10393112;28;20025;-86
2022/04/01 10:56:43;;;;;;;26.63;13.53;;;2.30;99.90;;;;;;10393208;28;20072;-86
2022/04/01 11:01:53;;;;;;;21.05;11.35;;;2.30;99.90;;;;;;10411495;28;20748;-86
2022/04/01 11:07:02;;;;;;;23.63;11.53;;;2.40;99.90;;;;;;10392224;28;20057;-85
2022/04/01 11:12:25;;;;;;;21.37;10.80;;;2.60;99.90;;;;;;10409935;28;20388;-86
2022/04/01 11:17:52;;;;;;;23.33;12.07;;;2.50;99.90;;;;;;10391841;28;20044;-85
2022/04/01 11:22:52;;;;;;;23.27;10.60;;;2.30;99.90;;;;;;10410034;28;20481;-85
2022/04/01 11:27:59;;;;;;;21.57;12.00;;;2.10;99.90;;;;;;10409503;28;20120;-85
2022/04/01 11:33:14;;;;;;;21.50;11.90;;;1.90;99.90;;;;;;10408991;28;20038;-85
2022/04/01 11:38:18;;;;;;;24.53;12.53;;;2.20;99.90;;;;;;10409004;28;20575;-88
2022/04/01 11:43:20;;;;;;;27.20;12.70;;;2.20;99.90;;;;;;10409630;28;20017;-87
2022/04/01 11:48:28;;;;;;;26.27;11.80;;;2.10;99.90;;;;;;10391147;28;20029;-90
2022/04/01 11:53:35;;;;;;;23.40;11.67;;;2.00;99.90;;;;;;10391137;28;20041;-84
2022/04/01 11:58:58;;;;;;;26.13;12.90;;;2.00;99.90;;;;;;10408017;28;20034;-90
2022/04/01 12:04:11;;;;;;;27.10;13.03;;;2.00;99.90;;;;;;10409012;28;20049;-85
2022/04/01 12:09:11;;;;;;;20.97;11.43;;;1.90;99.90;;;;;;10390636;28;20029;-85
2022/04/01 12:14:13;;;;;;;21.43;11.40;;;1.80;99.90;;;;;;10409010;28;20563;-85
2022/04/01 12:19:17;;;;;;;23.03;11.87;;;1.80;99.90;;;;;;10407722;28;20049;-88
2022/04/01 12:24:18;;;;;;;29.33;13.77;;;1.80;99.90;;;;;;10376377;28;20497;-85
2022/04/01 12:29:24;;;;;;;24.70;13.57;;;2.10;99.90;;;;;;10349416;28;20034;-85
2022/04/01 12:34:26;;;;;;;25.13;12.05;;;2.20;99.90;;;;;;10367298;28;20119;-87
2022/04/01 12:39:29;;;;;;;25.03;13.20;;;2.50;99.90;;;;;;10349956;28;20029;-85
2022/04/01 12:44:31;;;;;;;19.87;9.30;;;2.50;99.90;;;;;;10366939;28;20510;-87
2022/04/01 12:49:34;;;;;;;24.07;11.90;;;2.40;99.90;;;;;;10367231;28;20366;-85
2022/04/01 12:54:39;;;;;;;27.60;12.57;;;2.10;99.90;;;;;;10349289;28;20022;-87
2022/04/01 12:59:42;;;;;;;22.50;11.40;;;1.90;99.90;;;;;;10350140;28;20029;-85
2022/04/01 13:04:45;;;;;;;24.60;11.70;;;1.70;99.90;;;;;;10348802;28;20042;-88
2022/04/01 13:09:48;;;;;;;25.93;12.43;;;1.70;99.90;;;;;;10349728;28;20030;-84
2022/04/01 13:15:28;;;;;;;27.53;13.63;;;1.70;99.90;;;;;;10356093;28;20092;-89
2022/04/01 13:20:32;;;;;;;32.17;15.13;;;1.70;99.90;;;;;;10342787;28;20041;-89
2022/04/01 13:25:33;;;;;;;28.43;14.03;;;1.90;99.90;;;;;;10374305;28;20046;-84
2022/04/01 13:30:34;;;;;;;32.40;15.77;;;1.90;99.90;;;;;;10388956;28;20052;-84
2022/04/01 13:35:35;;;;;;;26.20;13.53;;;1.80;99.90;;;;;;10390618;28;20546;-85
2022/04/01 13:40:35;;;;;;;29.20;13.87;;;1.80;99.90;;;;;;10413073;28;20036;-84
2022/04/01 13:45:39;;;;;;;35.43;16.67;;;1.70;99.90;;;;;;10369047;28;20038;-84
2022/04/01 13:50:40;;;;;;;179.70;68.70;;;1.90;99.90;;;;;;10401649;28;20041;-86
2022/04/01 13:55:41;;;;;;;47.63;24.77;;;1.90;99.90;;;;;;10378800;28;20091;-84
2022/04/01 14:00:42;;;;;;;30.00;15.33;;;1.80;99.90;;;;;;10413857;28;20025;-85
2022/04/01 14:05:43;;;;;;;35.17;15.77;;;1.70;99.90;;;;;;10396064;28;20065;-85
2022/04/01 14:10:45;;;;;;;44.30;23.60;;;1.60;99.90;;;;;;10411910;28;20033;-85
2022/04/01 14:15:45;;;;;;;26.97;13.90;;;1.60;99.90;;;;;;10412901;28;20485;-85
2022/04/01 14:20:46;;;;;;;29.43;14.03;;;1.40;99.90;;;;;;10389271;28;20109;-85
2022/04/01 14:25:50;;;;;;;27.23;13.90;;;1.50;99.90;;;;;;10357801;28;20437;-84
2022/04/01 14:30:51;;;;;;;27.50;13.17;;;1.60;99.90;;;;;;10397508;28;20061;-87
2022/04/01 14:35:52;;;;;;;46.60;18.77;;;1.50;99.90;;;;;;10386528;28;20053;-85
2022/04/01 14:40:54;;;;;;;46.93;23.37;;;1.50;99.90;;;;;;10371709;28;20033;-89
2022/04/01 14:45:55;;;;;;;163.37;61.67;;;1.30;99.90;;;;;;10375910;28;20025;-89
2022/04/01 14:50:55;;;;;;;257.37;92.73;;;1.50;99.90;;;;;;10377673;28;20125;-86
2022/04/01 14:55:56;;;;;;;32.57;16.33;;;1.50;99.90;;;;;;10370882;28;20034;-86
2022/04/01 15:00:58;;;;;;;107.73;40.80;;;1.50;99.90;;;;;;10370977;28;20141;-88
2022/04/01 15:05:58;;;;;;;171.37;60.60;;;1.50;99.90;;;;;;10353467;28;20144;-90
2022/04/01 15:10:59;;;;;;;28.97;14.77;;;1.50;99.90;;;;;;10354091;28;20092;-88
2022/04/01 15:16:00;;;;;;;26.70;12.93;;;1.50;99.90;;;;;;10358540;28;20513;-83
2022/04/01 15:21:01;;;;;;;26.53;13.07;;;1.30;99.90;;;;;;10403807;28;20025;-86
2022/04/01 15:26:02;;;;;;;28.33;14.17;;;1.20;99.90;;;;;;10393534;28;20037;-85
2022/04/01 15:31:03;;;;;;;40.47;18.40;;;1.20;99.90;;;;;;10364449;28;20037;-85
2022/04/01 15:36:04;;;;;;;55.23;21.33;;;1.10;99.90;;;;;;10408224;28;20129;-84
2022/04/01 15:41:08;;;;;;;37.53;18.23;;;1.10;99.90;;;;;;10405028;28;20032;-84
2022/04/01 15:46:09;;;;;;;30.93;14.77;;;1.10;99.90;;;;;;10358099;28;20048;-84
2022/04/01 15:51:10;;;;;;;29.60;14.90;;;1.10;99.90;;;;;;10408422;28;20048;-85
2022/04/01 15:56:12;;;;;;;29.83;14.63;;;0.90;99.90;;;;;;10371396;28;20067;-87
2022/04/01 16:01:18;;;;;;;25.43;12.80;;;1.00;99.90;;;;;;10368462;28;20273;-88
2022/04/01 16:06:19;;;;;;;;;;;0.90;99.90;;;;;;10383478;28;20037;-86
2022/04/01 16:11:21;;;;;;;35.83;16.00;;;0.90;99.90;;;;;;10378773;28;19916;-88
2022/04/01 16:16:25;;;;;;;33.43;15.60;;;0.80;99.90;;;;;;10367537;28;20741;-85
2022/04/01 16:21:26;;;;;;;35.37;16.23;;;0.80;99.90;;;;;;10392217;28;20119;-85
2022/04/01 16:26:27;;;;;;;34.80;15.13;;;0.80;99.90;;;;;;10390583;28;20060;-88
2022/04/01 16:31:27;;;;;;;28.00;15.10;;;0.80;99.90;;;;;;10388166;28;20320;-84
2022/04/01 16:36:28;;;;;;;31.23;16.63;;;0.70;99.90;;;;;;10389489;28;20045;-86
2022/04/01 16:41:29;;;;;;;33.50;16.97;;;0.70;99.90;;;;;;10387755;28;20026;-89
2022/04/01 16:46:29;;;;;;;39.63;16.93;;;0.70;99.90;;;;;;10371329;28;20492;-86
2022/04/01 16:51:30;;;;;;;37.70;16.80;;;0.70;99.90;;;;;;10365690;28;20489;-86
2022/04/01 16:56:30;;;;;;;32.90;15.27;;;0.70;99.90;;;;;;10391026;28;20053;-85
2022/04/01 17:01:31;;;;;;;29.10;14.00;;;0.70;99.90;;;;;;10412365;28;20040;-86
2022/04/01 17:17:13;;;;;;;33.03;14.97;;;0.70;99.90;;;;;;10393321;28;20413;-91
2022/04/01 17:22:14;;;;;;;33.23;15.20;;;0.70;99.90;;;;;;10370631;28;20497;-89
2022/04/01 17:27:14;;;;;;;30.40;14.30;;;0.60;99.90;;;;;;10396843;28;20044;-90
2022/04/01 17:32:28;;;;;;;36.23;15.60;;;0.60;99.90;;;;;;10393382;28;20033;-86
2022/04/01 17:37:29;;;;;;;30.43;14.73;;;0.60;99.90;;;;;;10381837;28;20037;-87
2022/04/01 17:42:29;;;;;;;36.90;16.10;;;0.70;99.90;;;;;;10379566;28;20389;-85
2022/04/01 17:47:31;;;;;;;34.13;15.37;;;0.60;99.90;;;;;;10371106;28;20029;-87
2022/04/01 17:52:32;;;;;;;32.03;15.83;;;0.70;99.90;;;;;;10383548;28;20030;-87
2022/04/01 17:57:34;;;;;;;31.23;15.67;;;0.70;99.90;;;;;;10378574;28;20145;-87
2022/04/01 18:02:36;;;;;;;33.23;13.90;;;0.70;99.90;;;;;;10369308;28;20072;-86
2022/04/01 18:07:41;;;;;;;27.87;13.87;;;0.60;99.90;;;;;;10386095;28;20052;-86
2022/04/01 18:12:42;;;;;;;27.98;11.88;;;0.60;99.90;;;;;;10392937;28;20022;-87
2022/04/01 18:17:43;;;;;;;31.00;14.23;;;0.60;99.90;;;;;;10395859;28;20037;-89
2022/04/01 18:22:43;;;;;;;32.23;15.33;;;0.60;99.90;;;;;;10355494;28;20034;-87
2022/04/01 18:28:05;;;;;;;32.37;16.03;;;0.60;99.90;;;;;;10385026;28;20095;-86
2022/04/01 18:33:16;;;;;;;37.10;16.37;;;0.60;99.90;;;;;;10388429;28;20030;-85
2022/04/01 18:38:24;;;;;;;29.80;14.13;;;0.70;99.90;;;;;;10364677;28;20626;-82
2022/04/01 18:43:29;;;;;;;31.60;14.77;;;0.60;99.90;;;;;;10390798;28;20032;-82
2022/04/01 18:48:30;;;;;;;31.63;13.23;;;0.70;99.90;;;;;;10385576;28;20451;-85
2022/04/01 18:53:31;;;;;;;24.73;12.20;;;0.60;99.90;;;;;;10386551;28;20076;-86
2022/04/01 18:58:34;;;;;;;25.00;12.57;;;0.60;99.90;;;;;;10389275;28;20033;-85
2022/04/01 19:03:39;;;;;;;29.10;13.73;;;0.60;99.90;;;;;;10409566;28;20370;-85
2022/04/01 19:08:52;;;;;;;32.78;14.10;;;0.60;99.90;;;;;;10396249;28;20037;-85
2022/04/01 19:14:00;;;;;;;32.13;14.37;;;0.60;99.90;;;;;;10403346;28;20057;-83
2022/04/01 19:19:02;;;;;;;32.57;13.47;;;0.70;99.90;;;;;;10376281;28;20028;-86
2022/04/01 19:24:08;;;;;;;32.83;14.50;;;0.70;99.90;;;;;;10376248;28;20022;-80
2022/04/01 19:29:09;;;;;;;;;;;0.60;99.90;;;;;;10379441;28;20505;-85
2022/04/01 19:34:10;;;;;;;27.17;12.83;;;0.60;99.90;;;;;;10384123;28;19928;-85
2022/04/01 19:39:10;;;;;;;28.80;13.37;;;0.60;99.90;;;;;;10388834;28;20041;-81
2022/04/01 19:44:11;;;;;;;29.80;14.73;;;0.60;99.90;;;;;;10371856;28;20026;-83
2022/04/01 19:49:12;;;;;;;32.77;15.03;;;0.60;99.90;;;;;;10380789;28;20083;-83
2022/04/01 19:54:13;;;;;;;30.90;14.13;;;0.70;99.90;;;;;;10395652;28;20075;-87
2022/04/01 19:59:14;;;;;;;32.57;15.70;;;0.70;99.90;;;;;;10403845;28;20033;-87
2022/04/01 20:04:16;;;;;;;30.93;14.90;;;0.60;99.90;;;;;;10381101;28;20096;-83
2022/04/01 20:09:16;;;;;;;29.37;15.43;;;0.70;99.90;;;;;;10368136;28;20026;-83
2022/04/01 20:14:17;;;;;;;31.07;15.33;;;0.60;99.90;;;;;;10349662;28;20041;-86
2022/04/01 20:19:18;;;;;;;34.30;15.80;;;0.60;99.90;;;;;;10383600;28;20048;-83
2022/04/01 20:24:18;;;;;;;38.37;17.20;;;0.60;99.90;;;;;;10379375;28;20371;-83
2022/04/01 20:29:20;;;;;;;31.43;14.17;;;0.70;99.90;;;;;;10397802;28;20080;-83
2022/04/01 20:34:21;;;;;;;29.83;14.00;;;0.70;99.90;;;;;;10365601;28;20045;-83
2022/04/01 20:39:22;;;;;;;32.33;15.67;;;0.60;99.90;;;;;;10363203;28;20030;-83
2022/04/01 20:44:22;;;;;;;29.47;14.87;;;0.60;99.90;;;;;;10396520;28;20026;-83
2022/04/01 20:49:23;;;;;;;23.90;13.43;;;0.60;99.90;;;;;;10398865;28;20025;-88
2022/04/01 20:54:24;;;;;;;34.07;16.60;;;0.60;99.90;;;;;;10375206;28;20045;-84
2022/04/01 20:59:25;;;;;;;29.93;16.10;;;0.60;99.90;;;;;;10375657;28;20088;-85
2022/04/01 21:04:25;;;;;;;34.17;16.57;;;0.60;99.90;;;;;;10389620;28;20565;-83
2022/04/01 21:09:27;;;;;;;31.07;15.80;;;0.60;99.90;;;;;;10388022;28;20079;-84
2022/04/01 21:14:29;;;;;;;31.73;15.60;;;0.60;99.90;;;;;;10378113;28;20474;-84
2022/04/01 21:19:30;;;;;;;32.43;16.27;;;0.60;99.90;;;;;;10389869;28;20038;-84
2022/04/01 21:24:32;;;;;;;38.80;18.00;;;0.60;99.90;;;;;;10406842;28;20505;-84
2022/04/01 21:29:32;;;;;;;34.83;17.50;;;0.60;99.90;;;;;;10372968;28;20056;-84
2022/04/01 21:34:33;;;;;;;33.50;17.43;;;0.50;99.90;;;;;;10411335;28;20140;-85
2022/04/01 21:39:34;;;;;;;40.57;17.80;;;0.60;99.90;;;;;;10406291;28;20033;-85
2022/04/01 21:44:34;;;;;;;31.03;16.37;;;0.60;99.90;;;;;;10411942;28;20061;-85
2022/04/01 21:49:35;;;;;;;34.53;18.00;;;0.60;99.90;;;;;;10375346;28;20121;-89
2022/04/01 21:54:37;;;;;;;36.27;18.53;;;0.60;99.90;;;;;;10371591;28;20050;-84
2022/04/01 21:59:38;;;;;;;32.57;16.27;;;0.60;99.90;;;;;;10374972;28;20041;-85
2022/04/01 22:04:38;;;;;;;35.53;18.83;;;0.60;99.90;;;;;;10408776;28;20053;-83
2022/04/01 22:09:39;;;;;;;35.47;17.97;;;0.60;99.90;;;;;;10404886;28;20112;-85
2022/04/01 22:14:40;;;;;;;32.83;17.10;;;0.60;99.90;;;;;;10396212;28;20080;-84
2022/04/01 22:19:41;;;;;;;31.17;16.70;;;0.60;99.90;;;;;;10402855;28;20029;-87
2022/04/01 22:24:41;;;;;;;34.63;17.23;;;0.60;99.90;;;;;;10353523;28;20034;-85
2022/04/01 22:29:42;;;;;;;38.03;18.50;;;0.50;99.90;;;;;;10382961;28;20025;-88
2022/04/01 22:34:42;;;;;;;31.87;16.03;;;0.50;99.90;;;;;;10391513;28;20104;-84
2022/04/01 22:39:43;;;;;;;30.33;15.97;;;0.50;99.90;;;;;;10411523;28;20638;-86
2022/04/01 22:44:44;;;;;;;30.23;16.27;;;0.50;99.90;;;;;;10386783;28;20037;-85
2022/04/01 22:49:44;;;;;;;36.57;17.87;;;0.50;99.90;;;;;;10406991;28;20030;-84
2022/04/01 22:54:45;;;;;;;33.23;17.30;;;0.50;99.90;;;;;;10410876;28;20029;-84
2022/04/01 22:59:46;;;;;;;35.93;17.50;;;0.50;99.90;;;;;;10399841;28;20481;-87
2022/04/01 23:04:46;;;;;;;30.43;15.43;;;0.50;99.90;;;;;;10386850;28;20053;-89
2022/04/01 23:09:47;;;;;;;32.57;15.03;;;0.50;99.90;;;;;;10389379;28;20128;-85
2022/04/01 23:14:48;;;;;;;27.33;14.73;;;0.50;99.90;;;;;;10385853;28;20402;-88
2022/04/01 23:19:48;;;;;;;30.00;15.07;;;0.50;99.90;;;;;;10404994;28;20033;-85
2022/04/01 23:24:50;;;;;;;31.73;16.60;;;0.40;99.90;;;;;;10391687;28;20033;-84
2022/04/01 23:29:50;;;;;;;29.77;15.30;;;0.40;99.90;;;;;;10381165;28;20141;-84
2022/04/01 23:34:55;;;;;;;28.20;14.90;;;0.40;99.90;;;;;;10407522;28;20041;-85
2022/04/01 23:39:55;;;;;;;32.07;16.13;;;0.40;99.90;;;;;;10364717;28;20101;-84
2022/04/01 23:44:56;;;;;;;32.00;15.20;;;0.40;99.90;;;;;;10377937;28;20132;-83
2022/04/01 23:49:57;;;;;;;30.80;16.00;;;0.40;99.90;;;;;;10395245;28;20051;-85
2022/04/01 23:54:58;;;;;;;27.67;15.10;;;0.40;99.90;;;;;;10386879;28;20043;-85
2022/04/01 23:59:58;;;;;;;30.43;13.90;;;0.40;99.90;;;;;;10399857;28;20026;-89
